Time;durP1;ratioP1;P1;durP2;ratioP2;P2;SDS_P1;SDS_P2;PMS_P1;PMS_P2;Temp;Humidity;BMP_temperature;BMP_pressure;BME280_temperature;BME280_humidity;BME280_pressure;Samples;Min_cycle;Max_cycle;Signal;HPM_P1;HPM_P2
2022/10/26 00:00:27;;;;;;;;;2.00;2.00;;;;;22.15;64.31;101027.70;105631;1275;20869;-54
2022/10/26 00:03:14;;;;;;;;;2.00;2.00;;;;;22.16;64.30;101030.17;105635;1297;21066;-50
2022/10/26 00:05:41;;;;;;;;;2.00;2.00;;;;;22.17;64.25;101028.61;105500;1282;19854;-56
2022/10/26 00:08:08;;;;;;;;;2.00;2.00;;;;;22.17;64.21;101028.97;105612;1291;21015;-53
2022/10/26 00:10:36;;;;;;;;;2.00;2.00;;;;;22.17;64.24;101030.27;105618;1297;18588;-55
2022/10/26 00:13:03;;;;;;;;;2.00;2.00;;;;;22.17;64.19;101036.08;105608;1275;20364;-54
2022/10/26 00:15:30;;;;;;;;;2.00;2.00;;;;;22.17;64.27;101035.16;105587;1282;20930;-54
2022/10/26 00:17:57;;;;;;;;;5.00;2.00;;;;;22.16;64.33;101035.60;105639;1300;18472;-53
2022/10/26 00:20:25;;;;;;;;;;;;;;;22.15;64.10;101039.73;105602;1275;20217;-53
2022/10/26 00:22:52;;;;;;;;;2.00;2.00;;;;;22.15;64.12;101035.00;105619;1298;20936;-51
2022/10/26 00:25:19;;;;;;;;;2.00;2.00;;;;;22.15;64.11;101033.35;105604;1282;18715;-52
2022/10/26 00:27:46;;;;;;;;;2.00;2.00;;;;;22.15;64.24;101026.80;105607;1281;19222;-52
2022/10/26 00:30:14;;;;;;;;;2.00;2.00;;;;;22.14;64.14;101025.65;105601;1291;19715;-54
2022/10/26 00:32:41;;;;;;;;;2.00;2.00;;;;;22.15;64.27;101028.70;105493;1282;23340;-52
2022/10/26 00:35:08;;;;;;;;;2.00;2.00;;;;;22.15;64.21;101031.21;105625;1298;18525;-54
2022/10/26 00:37:35;;;;;;;;;2.50;2.50;;;;;22.15;64.20;101034.98;105581;1281;19511;-50
2022/10/26 00:40:03;;;;;;;;;2.50;2.50;;;;;22.14;64.17;101032.00;105597;1291;18445;-52
2022/10/26 00:42:30;;;;;;;;;2.00;2.00;;;;;22.15;64.09;101035.38;105593;1282;19155;-53
2022/10/26 00:44:59;;;;;;;;;3.00;2.00;;;;;22.14;64.06;101037.98;105564;1281;19686;-54
2022/10/26 00:47:27;;;;;;;;;2.00;2.00;;;;;22.15;63.94;101043.80;105593;1297;22574;-52
2022/10/26 00:49:54;;;;;;;;;3.00;3.00;;;;;22.14;64.15;101042.89;105653;1298;22240;-55
2022/10/26 00:52:21;;;;;;;;;5.00;3.00;;;;;22.15;63.98;101040.66;105586;1275;19536;-54
2022/10/26 00:54:49;;;;;;;;;2.00;2.00;;;;;22.15;63.96;101042.48;105593;1275;19803;-54
2022/10/26 00:57:16;;;;;;;;;2.00;2.00;;;;;22.16;63.98;101045.33;105617;1275;18730;-55
2022/10/26 00:59:43;;;;;;;;;2.00;2.00;;;;;22.14;63.90;101045.65;105533;1298;19293;-55
2022/10/26 01:02:11;;;;;;;;;2.00;2.00;;;;;22.14;63.91;101043.17;105593;1297;19865;-56
2022/10/26 01:04:38;;;;;;;;;2.00;2.00;;;;;22.14;63.86;101046.20;105600;1289;20060;-51
2022/10/26 01:07:05;;;;;;;;;2.00;2.00;;;;;22.13;63.92;101047.36;105566;1297;19554;-51
2022/10/26 01:09:33;;;;;;;;;2.00;2.00;;;;;22.15;64.02;101046.08;105521;1282;19663;-57
2022/10/26 01:12:00;;;;;;;;;2.00;2.00;;;;;22.15;63.98;101044.83;105551;1282;19916;-57
2022/10/26 01:14:27;;;;;;;;;1.50;1.50;;;;;22.14;63.78;101049.88;105572;1281;19513;-50
2022/10/26 01:16:54;;;;;;;;;3.00;2.00;;;;;22.13;63.89;101048.66;105607;1297;19808;-52
2022/10/26 01:19:22;;;;;;;;;2.00;2.00;;;;;22.12;64.01;101047.13;105612;1305;18663;-56
2022/10/26 01:21:49;;;;;;;;;2.00;2.00;;;;;22.13;63.73;101046.67;105510;1275;20944;-56
2022/10/26 01:24:16;;;;;;;;;2.00;2.00;;;;;22.12;63.98;101046.41;105549;1297;22182;-54
2022/10/26 01:26:44;;;;;;;;;2.00;2.00;;;;;22.11;63.82;101047.95;105565;1289;23181;-57
2022/10/26 01:29:11;;;;;;;;;2.00;2.00;;;;;22.11;63.78;101040.64;105624;1281;23059;-54
2022/10/26 01:31:38;;;;;;;;;1.67;1.67;;;;;22.12;63.80;101038.26;105600;1282;20812;-53
2022/10/26 01:34:05;;;;;;;;;2.00;2.00;;;;;22.12;63.71;101037.48;105632;1282;20297;-51
2022/10/26 01:36:32;;;;;;;;;2.50;2.50;;;;;22.12;63.83;101042.77;105628;1297;19574;-53
2022/10/26 01:39:00;;;;;;;;;3.00;2.00;;;;;22.13;63.74;101045.63;105586;1297;19828;-56
2022/10/26 01:41:27;;;;;;;;;2.00;2.00;;;;;22.12;63.60;101045.36;105612;1288;20209;-53
2022/10/26 01:43:54;;;;;;;;;2.00;2.00;;;;;22.11;63.69;101048.90;105614;1282;19302;-54
2022/10/26 01:46:22;;;;;;;;;2.00;2.00;;;;;22.10;63.76;101045.52;105607;1282;18346;-52
2022/10/26 01:48:49;;;;;;;;;2.00;2.00;;;;;22.12;63.64;101044.98;105575;1279;20300;-53
2022/10/26 01:51:16;;;;;;;;;2.00;2.00;;;;;22.11;63.60;101045.27;105610;1297;19501;-54
2022/10/26 01:53:43;;;;;;;;;2.00;2.00;;;;;22.11;63.53;101043.95;105459;1304;20121;-54
2022/10/26 01:56:12;;;;;;;;;2.00;2.00;;;;;22.11;63.69;101044.94;105630;1297;18858;-52
2022/10/26 01:58:40;;;;;;;;;2.00;2.00;;;;;22.11;63.63;101046.35;105613;1297;19796;-52
2022/10/26 02:01:07;;;;;;;;;2.00;2.00;;;;;22.12;63.43;101045.70;105573;1297;20984;-51
2022/10/26 02:03:34;;;;;;;;;2.00;2.00;;;;;22.12;63.54;101051.36;105581;1297;22780;-55
2022/10/26 02:06:01;;;;;;;;;3.00;3.00;;;;;22.11;63.41;101047.80;105637;1283;19881;-58
2022/10/26 02:08:29;;;;;;;;;2.00;2.00;;;;;22.11;63.56;101045.65;105599;1297;24037;-56
2022/10/26 02:10:56;;;;;;;;;2.00;2.00;;;;;22.11;63.53;101044.38;105642;1291;21136;-54
2022/10/26 02:13:23;;;;;;;;;3.00;2.00;;;;;22.10;63.41;101044.30;105611;1296;20820;-54
2022/10/26 02:15:51;;;;;;;;;1.50;1.50;;;;;22.11;63.51;101047.98;105605;1297;18455;-53
2022/10/26 02:18:18;;;;;;;;;2.00;2.00;;;;;22.11;63.50;101049.95;105658;1281;19996;-54
2022/10/26 02:20:45;;;;;;;;;2.00;2.00;;;;;22.10;63.36;101053.13;105597;1297;19597;-52
2022/10/26 02:23:12;;;;;;;;;3.00;3.00;;;;;22.10;63.37;101059.95;105694;1297;18360;-54
2022/10/26 02:25:40;;;;;;;;;5.00;3.00;;;;;22.10;63.36;101061.14;105641;1288;18670;-54
2022/10/26 02:28:07;;;;;;;;;1.00;1.00;;;;;22.11;63.38;101059.98;105634;1297;20648;-51
2022/10/26 02:30:34;;;;;;;;;2.00;2.00;;;;;22.09;63.55;101060.70;105621;1292;20402;-54
2022/10/26 02:33:01;;;;;;;;;;;;;;;22.09;63.27;101061.46;105617;1297;20094;-56
2022/10/26 02:35:29;;;;;;;;;2.00;2.00;;;;;22.09;63.34;101061.86;105635;1275;21199;-54
2022/10/26 02:37:56;;;;;;;;;2.00;2.00;;;;;22.09;63.11;101064.20;105699;1298;19224;-54
2022/10/26 02:40:23;;;;;;;;;2.00;2.00;;;;;22.09;63.24;101067.64;105643;1282;20234;-55
2022/10/26 02:42:50;;;;;;;;;2.00;2.00;;;;;22.09;63.12;101066.72;105620;1297;19307;-56
2022/10/26 02:45:18;;;;;;;;;3.00;2.00;;;;;22.09;63.31;101067.27;105613;1279;18551;-56
2022/10/26 02:47:45;;;;;;;;;2.00;2.00;;;;;22.09;63.11;101073.67;105484;1282;20042;-56
2022/10/26 02:50:12;;;;;;;;;2.00;2.00;;;;;22.09;63.17;101075.68;105623;1300;19296;-52
2022/10/26 02:52:40;;;;;;;;;3.50;3.50;;;;;22.10;63.39;101076.71;105604;1282;21781;-51
2022/10/26 02:55:07;;;;;;;;;2.00;2.00;;;;;22.08;63.22;101078.16;105593;1297;21176;-55
2022/10/26 02:57:35;;;;;;;;;2.00;2.00;;;;;22.08;63.11;101087.59;105563;1293;21057;-52
2022/10/26 03:00:02;;;;;;;;;3.00;2.00;;;;;22.08;63.07;101088.41;105595;1297;18399;-57
2022/10/26 03:02:30;;;;;;;;;2.00;2.00;;;;;22.09;63.04;101090.02;105597;1291;20325;-52
2022/10/26 03:04:57;;;;;;;;;3.50;3.50;;;;;22.09;63.06;101092.82;105623;1277;21387;-54
2022/10/26 03:07:24;;;;;;;;;1.00;1.00;;;;;22.08;63.05;101094.52;105591;1297;19970;-55
2022/10/26 03:09:51;;;;;;;;;2.50;2.50;;;;;22.08;63.03;101094.55;105596;1300;20166;-56
2022/10/26 03:12:19;;;;;;;;;2.00;2.00;;;;;22.07;62.88;101093.15;105568;1275;22654;-55
2022/10/26 03:14:47;;;;;;;;;3.00;3.00;;;;;22.07;62.94;101097.18;105480;1284;22420;-53
2022/10/26 03:17:14;;;;;;;;;2.50;2.50;;;;;22.09;62.95;101096.66;105614;1282;21547;-52
2022/10/26 03:19:41;;;;;;;;;2.00;2.00;;;;;22.08;62.90;101095.40;105656;1297;21211;-51
2022/10/26 03:22:08;;;;;;;;;3.00;3.00;;;;;22.08;63.12;101090.90;105619;1295;20203;-56
2022/10/26 03:24:36;;;;;;;;;2.00;2.00;;;;;22.07;62.94;101089.92;105620;1289;18718;-54
2022/10/26 03:27:03;;;;;;;;;2.50;2.50;;;;;22.07;62.91;101090.21;105609;1297;22716;-53
2022/10/26 03:29:30;;;;;;;;;2.00;2.00;;;;;22.08;62.78;101092.95;105582;1282;19609;-57
2022/10/26 03:31:58;;;;;;;;;3.00;2.00;;;;;22.06;62.85;101093.84;105675;1291;18723;-55
2022/10/26 03:34:25;;;;;;;;;2.50;2.50;;;;;22.06;62.77;101100.82;105630;1289;19548;-54
2022/10/26 03:36:52;;;;;;;;;4.50;4.50;;;;;22.08;62.75;101107.86;105628;1275;20244;-54
2022/10/26 03:39:19;;;;;;;;;2.00;2.00;;;;;22.07;62.75;101103.91;105625;1297;20143;-55
2022/10/26 03:41:47;;;;;;;;;2.00;2.00;;;;;22.06;62.80;101096.37;105499;1298;22792;-53
2022/10/26 03:44:14;;;;;;;;;4.00;2.00;;;;;22.08;62.72;101098.70;105720;1298;18573;-53
2022/10/26 03:46:42;;;;;;;;;3.00;2.00;;;;;22.05;62.75;101099.20;105583;1291;18880;-52
2022/10/26 03:49:09;;;;;;;;;3.00;2.00;;;;;22.06;62.68;101103.29;105628;1289;21440;-51
2022/10/26 03:51:36;;;;;;;;;2.00;2.00;;;;;22.06;62.83;101101.14;105631;1291;18632;-55
2022/10/26 03:54:03;;;;;;;;;2.00;2.00;;;;;22.07;62.72;101106.88;105632;1289;21308;-52
2022/10/26 03:56:31;;;;;;;;;2.00;2.00;;;;;22.07;62.70;101107.17;105596;1283;21154;-51
2022/10/26 03:58:58;;;;;;;;;2.00;2.00;;;;;22.07;62.97;101109.52;105594;1297;18541;-52
2022/10/26 04:01:25;;;;;;;;;2.00;2.00;;;;;22.08;62.66;101111.89;105629;1284;20225;-52
2022/10/26 04:03:52;;;;;;;;;3.00;3.00;;;;;22.07;62.70;101110.19;105639;1291;21014;-52
2022/10/26 04:06:20;;;;;;;;;2.00;2.00;;;;;22.06;62.74;101100.80;105624;1289;18342;-54
2022/10/26 04:08:47;;;;;;;;;3.00;2.00;;;;;22.06;62.68;101098.38;105686;1291;20051;-54
2022/10/26 04:11:14;;;;;;;;;5.00;3.00;;;;;22.06;62.59;101099.67;105634;1300;19525;-53
2022/10/26 04:13:41;;;;;;;;;3.00;3.00;;;;;22.05;62.57;101100.12;105638;1297;19742;-52
2022/10/26 04:16:09;;;;;;;;;2.00;2.00;;;;;22.07;62.67;101107.34;105622;1297;18687;-53
2022/10/26 04:18:36;;;;;;;;;2.00;2.00;;;;;22.04;62.56;101104.41;105620;1282;20929;-53
2022/10/26 04:21:03;;;;;;;;;2.00;2.00;;;;;22.04;62.74;101106.25;105588;1289;22180;-53
2022/10/26 04:23:30;;;;;;;;;2.00;2.00;;;;;22.05;62.81;101110.73;105599;1289;22796;-56
2022/10/26 04:25:58;;;;;;;;;2.00;2.00;;;;;22.06;62.63;101109.48;105560;1298;19619;-51
2022/10/26 04:28:25;;;;;;;;;2.00;2.00;;;;;22.06;62.50;101112.20;105638;1275;22758;-51
2022/10/26 04:30:52;;;;;;;;;2.00;2.00;;;;;22.05;62.50;101109.60;105638;1297;18703;-53
2022/10/26 04:33:19;;;;;;;;;2.00;2.00;;;;;22.06;62.68;101112.86;105562;1297;21153;-53
2022/10/26 04:35:47;;;;;;;;;2.00;2.00;;;;;22.05;62.55;101118.92;105475;1282;18431;-54
2022/10/26 04:38:14;;;;;;;;;2.00;2.00;;;;;22.06;62.43;101121.02;105662;1304;18841;-54
2022/10/26 04:40:41;;;;;;;;;1.50;1.50;;;;;22.06;62.49;101128.43;105531;1275;20939;-56
2022/10/26 04:43:09;;;;;;;;;2.00;2.00;;;;;22.05;62.48;101122.19;105577;1282;19553;-55
2022/10/26 04:45:36;;;;;;;;;4.00;3.50;;;;;22.05;62.66;101124.95;105542;1299;18562;-55
2022/10/26 04:48:03;;;;;;;;;;;;;;;22.05;62.42;101120.90;105607;1290;19681;-55
2022/10/26 04:50:30;;;;;;;;;2.00;2.00;;;;;22.07;62.47;101117.79;105610;1279;22083;-55
2022/10/26 04:52:58;;;;;;;;;2.00;2.00;;;;;22.08;62.49;101123.52;105597;1297;18418;-54
2022/10/26 04:55:25;;;;;;;;;1.00;1.00;;;;;22.09;62.97;101129.70;105532;1275;22470;-51
2022/10/26 04:57:52;;;;;;;;;2.50;2.50;;;;;22.11;63.19;101129.50;105569;1298;18511;-51
2022/10/26 05:00:19;;;;;;;;;2.00;2.00;;;;;22.11;63.61;101132.58;105560;1282;20122;-52
2022/10/26 05:02:47;;;;;;;;;7.00;7.00;;;;;22.15;63.99;101131.14;105559;1297;19622;-56
2022/10/26 05:05:14;;;;;;;;;31.00;30.00;;;;;22.18;64.09;101132.55;105636;1282;19722;-53
2022/10/26 05:07:41;;;;;;;;;;;;;;;22.20;64.20;101130.91;105504;1291;20929;-55
2022/10/26 05:10:08;;;;;;;;;73.00;59.50;;;;;22.23;64.51;101132.77;105479;1297;19635;-54
2022/10/26 05:12:36;;;;;;;;;58.50;50.00;;;;;22.23;64.48;101136.14;105462;1290;19613;-56
2022/10/26 05:15:03;;;;;;;;;56.50;47.00;;;;;22.22;64.39;101139.60;105489;1275;20505;-52
2022/10/26 05:17:30;;;;;;;;;53.50;45.50;;;;;22.20;64.44;101143.98;105495;1285;19467;-53
2022/10/26 05:19:59;;;;;;;;;41.00;37.00;;;;;22.18;64.09;101147.20;105437;1281;18732;-56
2022/10/26 05:22:26;;;;;;;;;32.00;32.00;;;;;22.12;63.95;101144.73;105403;1275;23304;-58
2022/10/26 05:24:53;;;;;;;;;;;;;;;22.07;63.25;101147.75;105542;1298;21125;-51
2022/10/26 05:27:21;;;;;;;;;26.00;24.00;;;;;22.03;62.76;101146.59;105460;1275;20151;-53
2022/10/26 05:29:48;;;;;;;;;22.00;21.00;;;;;22.01;62.33;101153.77;105534;1297;18617;-54
2022/10/26 05:32:15;;;;;;;;;20.50;19.50;;;;;21.96;61.75;101148.37;105581;1301;19492;-53
2022/10/26 05:34:42;;;;;;;;;19.00;17.00;;;;;21.93;61.36;101149.29;105500;1275;20212;-52
2022/10/26 05:37:10;;;;;;;;;18.00;18.00;;;;;21.90;60.60;101152.11;105555;1281;18919;-57
2022/10/26 05:39:37;;;;;;;;;;;;;;;21.89;60.27;101150.39;105617;1289;21914;-55
2022/10/26 05:42:04;;;;;;;;;14.00;13.50;;;;;21.94;59.95;101154.91;105553;1281;22451;-55
2022/10/26 05:44:31;;;;;;;;;16.00;14.00;;;;;22.00;59.65;101157.59;105655;1279;22148;-56
2022/10/26 05:46:59;;;;;;;;;15.00;14.00;;;;;22.04;59.82;101158.27;105634;1298;19868;-55
2022/10/26 05:49:26;;;;;;;;;13.00;13.00;;;;;22.08;60.03;101160.45;105585;1282;20337;-54
2022/10/26 05:51:53;;;;;;;;;13.00;11.00;;;;;22.10;60.31;101165.51;105568;1291;18909;-55
2022/10/26 05:54:20;;;;;;;;;13.33;12.00;;;;;22.10;60.72;101166.80;105590;1291;19634;-53
2022/10/26 05:56:48;;;;;;;;;;;;;;;22.08;60.76;101172.73;105551;1301;19995;-54
2022/10/26 05:59:15;;;;;;;;;13.00;11.00;;;;;22.10;60.90;101173.35;105606;1291;19609;-56
2022/10/26 06:01:42;;;;;;;;;10.00;10.00;;;;;22.10;60.89;101171.86;105546;1279;19628;-56
2022/10/26 06:04:09;;;;;;;;;10.00;9.00;;;;;22.09;61.01;101169.41;105591;1289;19943;-55
2022/10/26 06:06:37;;;;;;;;;11.00;10.00;;;;;22.06;61.25;101171.87;105546;1281;20171;-55
2022/10/26 06:09:04;;;;;;;;;10.00;9.00;;;;;22.04;61.31;101166.48;105563;1298;19582;-54
2022/10/26 06:11:31;;;;;;;;;10.00;10.00;;;;;22.05;61.27;101169.17;105605;1275;18709;-56
2022/10/26 06:14:00;;;;;;;;;9.00;7.00;;;;;22.05;61.17;101172.08;105603;1289;18963;-52
2022/10/26 06:16:27;;;;;;;;;11.00;10.00;;;;;22.05;61.32;101171.90;105615;1275;20749;-55
2022/10/26 06:18:55;;;;;;;;;7.00;7.00;;;;;22.05;61.38;101177.88;105584;1282;18454;-55
2022/10/26 06:21:22;;;;;;;;;7.00;7.00;;;;;22.05;61.48;101180.10;105577;1276;18674;-54
2022/10/26 06:23:49;;;;;;;;;7.00;7.00;;;;;22.04;61.49;101180.36;105646;1297;21029;-52
2022/10/26 06:26:16;;;;;;;;;5.50;5.50;;;;;22.05;61.67;101185.38;105640;1298;18487;-53
2022/10/26 06:28:44;;;;;;;;;7.00;6.00;;;;;22.04;61.57;101189.98;105578;1275;20344;-51
2022/10/26 06:31:11;;;;;;;;;6.00;6.00;;;;;22.05;61.52;101193.75;105539;1282;20722;-52
2022/10/26 06:33:38;;;;;;;;;6.00;6.00;;;;;22.04;61.72;101192.89;105501;1282;19630;-55
2022/10/26 06:36:05;;;;;;;;;7.00;6.00;;;;;22.04;61.59;101201.42;105492;1291;18690;-54
2022/10/26 06:38:33;;;;;;;;;;;;;;;22.05;61.70;101210.44;105548;1281;19658;-55
2022/10/26 06:41:00;;;;;;;;;7.00;6.00;;;;;22.04;61.60;101210.20;105467;1282;19636;-52
2022/10/26 06:43:27;;;;;;;;;6.00;5.00;;;;;22.04;61.54;101207.88;105510;1281;18564;-54
2022/10/26 06:45:54;;;;;;;;;5.00;5.00;;;;;22.04;61.62;101207.08;105508;1282;19284;-52
2022/10/26 06:48:22;;;;;;;;;5.00;5.00;;;;;22.03;61.67;101205.93;105459;1282;20830;-53
2022/10/26 06:50:49;;;;;;;;;5.00;5.00;;;;;22.02;61.61;101211.08;105463;1282;18652;-52
2022/10/26 06:53:16;;;;;;;;;4.00;4.00;;;;;22.03;61.67;101207.91;105491;1282;20928;-56
2022/10/26 06:55:43;;;;;;;;;6.00;5.00;;;;;22.05;61.68;101213.36;105453;1279;18183;-57
2022/10/26 06:58:11;;;;;;;;;7.00;7.00;;;;;22.05;61.81;101215.55;105458;1281;20257;-54
2022/10/26 07:00:38;;;;;;;;;5.00;5.00;;;;;22.06;61.80;101216.52;105470;1289;21259;-51
2022/10/26 07:03:05;;;;;;;;;3.00;3.00;;;;;22.05;61.79;101216.61;105505;1297;18427;-52
2022/10/26 07:05:32;;;;;;;;;6.00;5.00;;;;;22.05;61.81;101220.49;105536;1282;21944;-54
2022/10/26 07:08:00;;;;;;;;;5.00;5.00;;;;;22.07;61.88;101223.30;105557;1289;19696;-54
2022/10/26 07:10:27;;;;;;;;;5.00;5.00;;;;;22.07;61.98;101225.49;105534;1275;19554;-55
2022/10/26 07:12:54;;;;;;;;;2.00;2.00;;;;;22.08;62.01;101226.64;105490;1291;18857;-53
2022/10/26 07:15:21;;;;;;;;;5.00;4.50;;;;;22.09;62.06;101232.93;105517;1289;20770;-53
2022/10/26 07:17:49;;;;;;;;;4.00;4.00;;;;;22.08;61.93;101233.20;105488;1282;20022;-52
2022/10/26 07:20:16;;;;;;;;;4.00;4.00;;;;;22.06;62.07;101237.80;105634;1297;18794;-54
2022/10/26 07:22:43;;;;;;;;;5.00;4.00;;;;;22.08;61.82;101235.76;105574;1282;19361;-53
2022/10/26 07:25:11;;;;;;;;;5.00;3.67;;;;;22.09;61.75;101236.16;105570;1271;18749;-54
2022/10/26 07:27:39;;;;;;;;;5.50;5.00;;;;;22.09;61.74;101239.29;105627;1282;20112;-51
2022/10/26 07:30:06;;;;;;;;;5.00;5.00;;;;;22.10;61.76;101240.30;105552;1282;19644;-53
2022/10/26 07:32:33;;;;;;;;;5.50;5.00;;;;;22.10;61.89;101244.50;105561;1283;19824;-52
2022/10/26 07:35:01;;;;;;;;;6.00;5.00;;;;;22.13;61.97;101249.21;105576;1279;19965;-54
2022/10/26 07:37:28;;;;;;;;;7.00;6.00;;;;;22.15;62.01;101245.97;105561;1282;19488;-55
2022/10/26 07:39:55;;;;;;;;;6.00;6.00;;;;;22.16;62.02;101248.17;105504;1282;18409;-54
2022/10/26 07:42:23;;;;;;;;;7.00;6.00;;;;;22.16;61.81;101249.45;105579;1297;20073;-55
2022/10/26 07:44:50;;;;;;;;;9.00;7.00;;;;;22.16;61.86;101255.15;105521;1281;20973;-56
2022/10/26 07:47:17;;;;;;;;;;;;;;;22.16;61.95;101259.00;105619;1297;19581;-56
2022/10/26 07:49:44;;;;;;;;;3.00;3.00;;;;;22.13;62.06;101261.62;105582;1291;19936;-54
2022/10/26 07:52:12;;;;;;;;;7.00;6.00;;;;;22.14;62.31;101261.16;105540;1291;20973;-51
2022/10/26 07:54:39;;;;;;;;;5.00;5.00;;;;;22.13;62.29;101258.20;105528;1282;20606;-51
2022/10/26 07:57:06;;;;;;;;;;;;;;;22.13;62.70;101262.54;105535;1279;18512;-53
2022/10/26 07:59:34;;;;;;;;;5.00;5.00;;;;;22.12;62.77;101266.08;105464;1275;96811;-55
2022/10/26 08:02:01;;;;;;;;;3.00;3.00;;;;;22.12;62.56;101270.89;105568;1297;18535;-52
2022/10/26 08:04:28;;;;;;;;;5.50;5.00;;;;;22.10;62.64;101274.80;105555;1297;18809;-55
2022/10/26 08:06:55;;;;;;;;;;;;;;;22.10;62.80;101275.01;105415;1274;23313;-55
2022/10/26 08:09:23;;;;;;;;;6.00;6.00;;;;;22.09;62.73;101278.05;105557;1282;19941;-56
2022/10/26 08:11:50;;;;;;;;;7.00;6.00;;;;;22.09;62.70;101278.59;105518;1283;18837;-54
2022/10/26 08:14:17;;;;;;;;;7.00;6.00;;;;;22.09;62.77;101277.16;105582;1298;21043;-51
2022/10/26 08:16:44;;;;;;;;;6.00;6.00;;;;;22.09;62.84;101279.91;105514;1298;20862;-55
2022/10/26 08:19:12;;;;;;;;;10.00;9.00;;;;;22.09;62.68;101280.44;105546;1282;20243;-53
2022/10/26 08:21:39;;;;;;;;;9.00;9.00;;;;;22.12;62.69;101283.52;105545;1300;21057;-53
2022/10/26 08:24:06;;;;;;;;;10.00;10.00;;;;;22.18;62.66;101286.28;105552;1289;20099;-52
2022/10/26 08:26:33;;;;;;;;;9.00;9.00;;;;;22.20;62.53;101287.23;105533;1296;20508;-53
2022/10/26 08:29:01;;;;;;;;;10.00;10.00;;;;;22.20;62.40;101288.70;105587;1297;19736;-55
2022/10/26 08:31:28;;;;;;;;;;;;;;;22.19;62.58;101289.56;105570;1282;19626;-55
2022/10/26 08:33:55;;;;;;;;;11.00;11.00;;;;;22.17;62.52;101290.33;105573;1297;18203;-51
2022/10/26 08:36:22;;;;;;;;;13.00;11.00;;;;;22.15;62.50;101291.59;105575;1291;19632;-52
2022/10/26 08:38:51;;;;;;;;;14.00;10.00;;;;;22.15;62.74;101289.04;105617;1298;18914;-49
2022/10/26 08:41:18;;;;;;;;;;;;;;;22.15;62.87;101291.09;105596;1297;20190;-53
2022/10/26 08:43:45;;;;;;;;;11.00;10.00;;;;;22.12;62.60;101289.59;105556;1275;19309;-51
2022/10/26 08:46:13;;;;;;;;;11.00;10.00;;;;;22.08;62.28;101289.23;105553;1281;18466;-50
2022/10/26 08:48:40;;;;;;;;;14.00;10.00;;;;;22.06;61.89;101294.77;105537;1275;21630;-50
2022/10/26 08:51:07;;;;;;;;;9.50;9.00;;;;;22.08;61.89;101296.02;105538;1276;19610;-50
2022/10/26 08:53:35;;;;;;;;;10.00;9.00;;;;;22.09;61.77;101297.60;105542;1297;18954;-51
2022/10/26 08:56:02;;;;;;;;;13.00;10.50;;;;;22.10;61.98;101299.20;105589;1282;18767;-49
2022/10/26 08:58:29;;;;;;;;;13.00;11.00;;;;;22.10;61.73;101304.30;105573;1275;20954;-52
2022/10/26 09:00:56;;;;;;;;;10.00;10.00;;;;;22.04;61.36;101296.05;105483;1275;18478;-52
2022/10/26 09:03:24;;;;;;;;;13.00;11.00;;;;;22.03;61.34;101295.50;105483;1297;19029;-53
2022/10/26 09:05:51;;;;;;;;;10.00;10.00;;;;;22.04;61.39;101297.59;105568;1283;20816;-53
2022/10/26 09:08:18;;;;;;;;;11.00;9.00;;;;;22.05;61.41;101297.85;105610;1289;18726;-52
2022/10/26 09:10:45;;;;;;;;;11.00;10.50;;;;;22.06;61.42;101301.31;105573;1297;20173;-51
2022/10/26 09:13:13;;;;;;;;;13.50;10.00;;;;;22.08;61.46;101303.97;105557;1297;19481;-51
2022/10/26 09:15:40;;;;;;;;;9.00;7.00;;;;;22.10;61.47;101306.50;105536;1281;18682;-48
2022/10/26 09:18:07;;;;;;;;;11.00;10.00;;;;;22.11;61.50;101307.13;105559;1291;20122;-51
2022/10/26 09:20:34;;;;;;;;;10.00;9.00;;;;;22.15;61.46;101303.48;105591;1297;21596;-53
2022/10/26 09:23:02;;;;;;;;;9.00;7.00;;;;;22.16;61.58;101299.79;105538;1297;18852;-51
2022/10/26 09:25:29;;;;;;;;;8.00;7.00;;;;;22.17;61.63;101302.04;105486;1296;22793;-53
2022/10/26 09:27:56;;;;;;;;;6.00;6.00;;;;;22.18;61.62;101301.74;105483;1300;24415;-51
2022/10/26 09:30:23;;;;;;;;;10.00;9.50;;;;;22.19;61.66;101307.40;105537;1297;19938;-52
2022/10/26 09:32:51;;;;;;;;;9.00;9.00;;;;;22.20;61.67;101315.86;105419;1282;20248;-52
2022/10/26 09:35:18;;;;;;;;;6.50;6.50;;;;;22.21;61.71;101314.25;105611;1283;19608;-54
2022/10/26 09:37:46;;;;;;;;;;;;;;;22.19;61.71;101319.08;105580;1289;18563;-53
2022/10/26 09:40:13;;;;;;;;;9.00;7.00;;;;;22.18;61.79;101317.89;105576;1297;18305;-54
2022/10/26 09:42:40;;;;;;;;;7.67;7.00;;;;;22.17;61.79;101321.30;105568;1297;21102;-52
2022/10/26 09:45:07;;;;;;;;;9.00;7.00;;;;;22.15;62.17;101318.02;105459;1298;22647;-54
2022/10/26 09:47:35;;;;;;;;;8.00;7.00;;;;;22.15;62.23;101318.25;105603;1290;19892;-52
2022/10/26 09:50:02;;;;;;;;;7.00;6.50;;;;;22.13;62.17;101327.69;105626;1295;22700;-56
2022/10/26 09:52:29;;;;;;;;;9.00;7.50;;;;;22.13;62.06;101328.09;105613;1297;18844;-53
2022/10/26 09:54:56;;;;;;;;;8.00;7.00;;;;;22.11;61.98;101328.59;105570;1282;20488;-56
2022/10/26 09:57:24;;;;;;;;;6.00;5.00;;;;;22.10;61.99;101333.27;105602;1272;19311;-53
2022/10/26 09:59:51;;;;;;;;;10.00;7.00;;;;;22.10;61.93;101338.55;105601;1275;18474;-55
2022/10/26 10:02:18;;;;;;;;;7.00;7.00;;;;;22.10;61.78;101337.53;105665;1297;20111;-51
2022/10/26 10:04:46;;;;;;;;;6.00;6.00;;;;;22.10;61.93;101347.66;105555;1282;20761;-54
2022/10/26 10:07:13;;;;;;;;;5.00;5.00;;;;;22.09;61.84;101346.09;105579;1282;18433;-54
2022/10/26 10:09:40;;;;;;;;;9.00;7.00;;;;;22.08;61.81;101345.16;105541;1282;21595;-55
2022/10/26 10:12:08;;;;;;;;;;;;;;;22.08;61.69;101344.07;105578;1297;21038;-51
2022/10/26 10:14:35;;;;;;;;;6.00;6.00;;;;;22.08;61.48;101346.17;105569;1291;19813;-53
2022/10/26 10:17:02;;;;;;;;;9.00;9.00;;;;;22.09;61.43;101347.05;105571;1297;19974;-53
2022/10/26 10:19:29;;;;;;;;;8.00;7.00;;;;;22.09;61.27;101345.09;105538;1289;19279;-53
2022/10/26 10:21:57;;;;;;;;;7.00;7.00;;;;;22.08;61.18;101347.37;105571;1283;18369;-53
2022/10/26 10:24:24;;;;;;;;;9.00;9.00;;;;;22.08;61.49;101349.52;105611;1288;18674;-55
2022/10/26 10:26:51;;;;;;;;;19.50;14.00;;;;;22.03;61.20;101345.39;105576;1297;19752;-56
2022/10/26 10:29:18;;;;;;;;;29.50;24.00;;;;;21.87;60.28;101346.00;105673;1272;19357;-55
2022/10/26 10:31:46;;;;;;;;;26.00;21.00;;;;;21.70;58.93;101351.59;105533;1272;23386;-52
2022/10/26 10:34:13;;;;;;;;;33.00;25.50;;;;;21.48;57.84;101347.54;105558;1281;20971;-53
2022/10/26 10:36:40;;;;;;;;;26.50;24.00;;;;;21.42;57.30;101343.20;105517;1295;20119;-52
2022/10/26 10:39:08;;;;;;;;;28.50;23.00;;;;;21.41;56.70;101345.47;105526;1297;19159;-55
2022/10/26 10:41:36;;;;;;;;;27.00;22.00;;;;;21.38;56.33;101341.96;105558;1301;20823;-53
2022/10/26 10:44:03;;;;;;;;;23.00;20.50;;;;;21.25;55.85;101338.77;105637;1290;20286;-54
2022/10/26 10:46:30;;;;;;;;;;;;;;;21.31;55.58;101341.48;105573;1281;20192;-56
2022/10/26 10:48:57;;;;;;;;;17.00;16.00;;;;;21.40;55.47;101345.98;105590;1289;19489;-55
2022/10/26 10:51:25;;;;;;;;;15.00;13.50;;;;;21.48;55.61;101345.80;105665;1297;18518;-56
2022/10/26 10:53:52;;;;;;;;;17.00;14.00;;;;;21.48;55.57;101346.33;105577;1291;18803;-52
2022/10/26 10:56:19;;;;;;;;;;;;;;;21.34;55.74;101345.96;105643;1297;19618;-51
2022/10/26 10:58:46;;;;;;;;;21.00;19.00;;;;;21.27;55.63;101347.91;105620;1294;20088;-54
2022/10/26 11:01:14;;;;;;;;;28.50;23.50;;;;;21.20;55.59;101346.68;105590;1275;20141;-57
2022/10/26 11:03:41;;;;;;;;;23.50;19.00;;;;;21.13;55.48;101347.20;105579;1297;19279;-53
2022/10/26 11:06:09;;;;;;;;;29.50;25.50;;;;;21.07;55.65;101347.27;105561;1297;19950;-53
2022/10/26 11:08:36;;;;;;;;;33.00;25.00;;;;;20.99;55.55;101348.81;105589;1297;22182;-52
2022/10/26 11:11:03;;;;;;;;;27.50;26.00;;;;;20.93;55.39;101352.80;105578;1297;22053;-53
2022/10/26 11:13:31;;;;;;;;;36.00;28.00;;;;;20.93;55.43;101355.51;105582;1275;22155;-52
2022/10/26 11:15:58;;;;;;;;;31.00;27.00;;;;;20.92;55.48;101352.36;105551;1275;18929;-54